Accueil
METAR-TAF:

METAR-TAF

Aéroports :

Siegen, Allemagne

latitude: 50-42-28N, longitude: 008-04-59E, altitude: 602 m

Observation

Le bulletin a été fait il y a 1 heure et 36 minutes, à 18:50 UTC
Vent 2 kt de est/nord-est
Température 11°C
Humidité 82%
Pression 1025 hPa
Visibilité 10 km ou plus
Nuages fragmentés à une hauteur de 2700 ft

METAR: EDGS 191850Z 06002KT 9999 BKN027 11/08 Q1025

Heure: 22:26 (20:26 UTC)

Prévision

Le bulletin a été fait il y a 3 heures et 26 minutes, à 17:00 UTC
Prévision valable du 19 à 18 UTC au 20 à 03 UTC
Vent 4 kt de nord-est
Visibilité 10 km ou plus
Nuages fragmentés à une hauteur de 2500 ft
Temporairement
du 19 à 19 UTC au 20 à 03 UTC
Visibilité: 4000 m
Nuages fragmentés à une hauteur de 1200 ft
brume

TAF: EDGS 191700Z 1918/2003 05004KT 9999 BKN025 TEMPO 1919/2003 4000 BR BKN012

Observations et prévisions météorologiques de plus de 4000 aéroports (messages METAR et TAF).

Les stations disponibles sont représentées par des disques jaunes et rouges sur la carte.

Passer la souris dessus pour voir le nom de la station.

Cliquer dessus pour voir les observations et prévisions météorologiques.

Pour changer de carte: cliquez sur les boutons verts avec une croix noire pour zoomer, sur le bouton vert avec un tiret pour effectuer un zoom arrière, ou sur les flèches vertes pour les cartes adjacentes.


METAR-TAF: